Last 365 Observations

Top Stn/Summit - 11,053ft

Daily Data | America/Los_Angeles
as of 7/14/24 4:54 PM PDT
Date Daily Max Temp (°F) Time of Max Temp Daily Min Temp (°F) Time of Min Temp Temp (°F) Daily Max Wind (mph) Time of Max Wind Max Wind Dir (°) Wind Spd (mph) Dew Pt (°F) Max RH (%) Min RH (%) Max Wet Bulb Temp (°F) Min Wet Bulb Temp (°F) WetB Hrs <28F (hrs) Hrs <= 32F (hrs) Heat Index Max Time Min Wind Chill (°F) Wind Chill Time MinBV Day (V)
7/13/24 64.0 1511 46.5 2138 55.3 59.2 1721 SSW | 199 18.1 34.4 90 29 50.1 43.4 0.0 0.0 - 35.4 1721 12.2
7/12/24 68.4 1211 54.6 2059 60.8 41.9 1502 SW | 235 12.9 29.1 67 19 50.5 42.7 0.0 0.0 - - - 12.2
7/11/24 68.8 1353 55.5 2149 61.2 39.4 1752 S | 191 20.9 23.0 57 15 48.9 39.6 0.0 0.0 - - - 12.2
7/10/24 67.4 1523 55.5 0550 61.5 65.8 1429 S | 179 20.6 18.8 28 12 47.3 39.6 0.0 0.0 - - - 12.2
7/9/24 67.8 1338 53.3 0156 60.4 49.7 1632 SSW | 197 20.6 22.8 46 8 49.0 38.8 0.0 0.0 - - - 12.2
7/8/24 68.2 1412 53.9 0053 60.4 41.7 1521 S | 176 19.3 32.1 50 21 50.8 42.3 0.0 0.0 - - - 12.2
7/7/24 69.1 1509 56.9 0551 62.2 39.6 1637 S | 183 13.7 32.9 48 24 51.4 43.6 0.0 0.0 - - - 12.2
7/6/24 69.8 1443 55.6 0540 61.3 44.4 1700 S | 173 19.1 25.5 49 16 50.6 40.1 0.0 0.0 - - - 12.2
7/5/24 67.9 1524 54.3 0204 59.9 38.7 1637 SSW | 200 17.6 24.5 48 17 51.9 39.0 0.0 0.0 - - - 12.2
7/4/24 65.7 1456 50.0 0519 58.0 39.7 1546 S | 188 15.9 34.6 69 24 50.7 41.1 0.0 0.0 - 46.2 0517 12.2
7/3/24 63.5 1515 50.7 0426 56.8 40.3 1350 S | 189 18.2 32.3 67 24 51.7 38.5 0.0 0.0 - - - 12.2
7/2/24 61.2 1510 43.9 0452 53.3 39.2 0137 ENE | 72 19.7 30.8 57 28 50.0 36.1 0.0 0.0 - 33.7 0448 12.2
7/1/24 58.4 1713 41.7 0503 53.7 52.2 2251 ENE | 71 22.1 34.1 77 35 50.1 38.5 0.0 0.0 - 31.5 0358 12.2
6/30/24 53.6 1610 40.3 0521 47.3 43.0 1454 S | 171 25.4 32.5 74 38 44.8 36.9 0.0 0.0 - 28.7 0416 12.2
6/29/24 56.0 1501 41.9 2207 50.2 40.5 1510 SSW | 193 18.0 30.4 76 32 44.6 37.8 0.0 0.0 - 30.4 0056 12.2
6/28/24 56.8 1449 45.0 0108 50.8 38.8 1719 S | 188 19.3 24.8 55 20 44.6 34.2 0.0 0.0 - 36.3 0101 12.2
6/27/24 52.9 1501 39.9 0605 46.2 53.3 0650 S | 188 33.6 34.8 100 34 44.6 36.8 0.0 0.0 - 25.4 0607 12.2
6/26/24 57.0 1528 41.4 0033 48.1 46.3 1806 S | 186 32.7 40.8 97 58 49.8 40.1 0.0 0.0 - 28.2 0026 12.2
6/25/24 60.4 1458 44.5 0059 51.2 40.9 1614 S | 183 22.4 42.5 85 53 52.6 42.7 0.0 0.0 - 34.7 0059 12.2
6/24/24 57.0 1337 45.6 0501 50.0 59.1 1559 S | 184 25.3 41.0 89 57 50.1 41.6 0.0 0.0 - 34.4 0453 12.2
6/23/24 57.0 1454 45.6 0527 50.8 61.7 1751 S | 186 36.5 30.1 69 24 44.5 39.0 0.0 0.0 - 35.1 0402 12.2
6/22/24 60.5 1418 48.1 0021 53.9 41.8 1726 S | 184 18.9 29.5 55 29 46.4 38.9 0.0 0.0 - 39.3 2340 12.2
6/21/24 63.3 1638 44.0 0626 51.2 38.9 1057 E | 87 20.3 23.7 51 22 50.6 34.5 0.0 0.0 - 33.3 0328 12.2
6/20/24 52.7 1350 39.3 0543 45.3 37.0 1633 S | 189 20.5 22.0 56 29 42.6 30.9 0.0 0.0 - 27.5 0551 12.2
6/19/24 48.0 1623 34.4 0413 42.4 33.9 1425 S | 186 13.3 22.3 61 29 40.4 28.6 0.0 0.0 - 23.8 0415 12.2
6/18/24 42.4 1335 31.3 0401 36.9 52.0 1217 S | 185 20.0 17.3 71 14 36.2 24.7 6.1 1.0 - 19.4 0359 12.2
6/17/24 46.7 1514 28.4 2324 34.3 54.2 0456 SSW | 194 30.8 16.1 79 14 39.2 21.8 9.2 9.6 - 10.8 0530 12.2
6/16/24 49.6 1334 33.2 0053 41.6 52.1 0041 S | 188 29.5 28.1 81 39 43.4 29.2 0.0 0.0 - 15.8 0037 12.2
6/15/24 51.0 1639 36.2 0539 43.0 55.5 0642 S | 170 32.7 28.1 68 35 43.5 32.0 0.0 0.0 - 20.3 0539 12.2
6/14/24 53.1 1518 36.6 0049 46.8 53.9 2022 S | 185 26.3 30.2 97 20 45.8 32.7 0.0 0.0 - 20.7 0048 12.2
6/13/24 57.8 1324 42.8 2354 49.4 45.2 1825 S | 184 18.2 38.9 100 24 52.7 40.3 0.0 0.0 - 32.2 2327 12.2
6/12/24 59.5 1532 47.4 2101 54.1 38.4 1914 SSW | 196 13.2 35.8 90 25 50.8 40.8 0.0 0.0 - 39.0 2059 12.2
6/11/24 60.2 1335 47.6 0411 52.3 38.3 1506 SSW | 194 14.8 36.2 71 33 49.1 41.4 0.0 0.0 - 38.9 0410 12.2
6/10/24 59.3 1507 40.6 0638 47.8 50.2 0321 ENE | 73 23.5 36.6 83 35 48.0 37.4 0.0 0.0 - 26.8 0539 12.2
6/9/24 54.1 0947 43.7 1937 48.3 42.7 1640 S | 189 16.1 33.3 97 13 46.5 32.8 0.0 0.0 - 34.2 1713 12.2
6/8/24 58.2 0742 43.7 0002 51.7 38.4 1619 S | 182 15.8 28.7 84 14 47.6 36.3 0.0 0.0 - 34.4 2048 12.2
6/7/24 57.3 1332 44.2 0524 50.1 42.1 1640 SSW | 192 21.8 36.0 85 17 48.6 36.8 0.0 0.0 - 34.0 0207 12.2
6/6/24 59.8 0841 45.2 2345 52.7 41.5 1949 SSW | 196 18.3 37.7 86 42 48.9 42.4 0.0 0.0 - 34.3 2345 12.2
6/5/24 60.2 0858 47.5 0504 52.9 38.6 1558 S | 182 13.4 36.1 73 37 48.0 41.1 0.0 0.0 - 41.7 0101 12.2
6/4/24 56.9 1804 38.4 0738 46.6 53.2 0939 NNW | 346 27.6 32.8 83 44 46.5 35.5 0.0 0.0 - 23.9 0739 12.2
6/3/24 43.8 2337 37.2 0741 39.8 64.0 1447 S | 186 29.6 35.7 100 51 40.5 36.5 0.0 0.0 - 21.2 1121 12.2
6/2/24 52.6 1839 33.2 0443 43.8 40.7 0506 SSW | 192 18.2 30.7 95 33 46.6 30.7 0.0 0.0 - 17.5 0506 12.2
6/1/24 45.5 1333 33.7 0530 38.8 46.6 1513 S | 186 27.7 29.3 93 28 40.3 31.7 0.0 0.0 - 20.6 0438 12.2
5/31/24 48.8 1159 36.4 0034 42.4 44.3 1725 S | 182 16.1 24.8 81 33 38.9 32.0 0.0 0.0 - 23.4 0032 12.2
5/30/24 48.5 1249 37.9 0104 43.6 42.8 1548 S | 184 20.1 26.6 78 34 39.7 33.6 0.0 0.0 - 27.3 2053 12.2
5/29/24 50.0 1909 31.8 0542 39.9 43.7 0503 S | 190 23.2 29.2 100 38 43.8 30.3 0.0 0.6 - 15.1 0503 12.2
5/28/24 50.2 0842 33.6 0055 41.1 47.9 1626 SSW | 192 17.3 32.9 100 47 42.1 33.5 0.0 0.0 - 18.7 0058 12.2
5/27/24 48.7 1313 37.6 0445 41.8 41.0 1703 SSW | 209 12.1 28.2 88 44 41.8 31.9 0.0 0.0 - 27.4 0142 12.2
5/26/24 44.3 1423 31.8 0548 39.4 37.3 1640 S | 186 16.2 18.2 77 21 36.9 25.3 3.7 0.1 - 20.5 0548 12.2
5/25/24 38.4 1944 24.2 0618 30.5 52.9 1126 S | 188 27.6 27.9 100 56 36.6 24.0 10.5 11.5 - 4.6 0422 12.2
5/24/24 36.3 1321 25.2 0058 29.7 47.3 1636 SSW | 194 30.9 26.8 100 52 33.0 24.4 11.5 19.4 - 7.8 0058 12.2
5/23/24 39.2 1507 27.5 0432 32.6 51.8 0225 S | 184 27.3 25.5 100 49 35.3 24.6 7.7 10.3 - 8.6 0201 12.2
5/22/24 37.0 1531 27.3 0557 31.8 59.6 1805 S | 186 39.5 27.2 100 43 34.7 26.2 5.0 13.9 - 8.1 0558 12.2
5/21/24 40.2 1458 20.1 0541 29.4 32.6 0101 ENE | 72 16.3 18.8 100 21 36.0 17.2 12.6 12.0 - 2.1 0443 12.2
5/20/24 34.0 1321 22.8 0057 28.5 46.7 1048 S | 185 29.7 25.9 100 66 32.4 20.2 13.7 20.9 - 4.3 0057 12.2
5/19/24 38.4 1456 26.6 2346 32.7 59.4 1235 S | 177 36.7 29.9 100 64 34.6 26.2 3.0 10.9 - 9.0 2343 12.2
5/18/24 49.8 1114 33.9 0057 40.7 43.4 2102 S | 189 17.3 31.2 100 40 42.4 32.8 0.0 0.0 - 18.9 0057 12.2
5/17/24 50.2 1530 36.5 0558 43.0 35.4 0054 ENE | 74 17.0 32.3 100 35 45.6 34.5 0.0 0.0 - 25.5 0421 12.2
5/16/24 49.8 1519 37.6 0410 41.8 32.4 1704 SSW | 212 14.6 26.8 100 25 44.4 30.8 0.0 0.0 - 25.4 0155 12.2
5/15/24 46.0 1745 35.4 0646 40.1 44.1 0932 NNW | 335 26.7 20.6 63 30 36.3 30.8 0.0 0.0 - 21.6 0609 12.2
5/14/24 46.8 1458 35.9 0547 40.0 36.8 0007 N | 349 17.1 26.9 71 45 39.5 32.2 0.0 0.0 - 22.5 0531 12.2
5/13/24 47.7 1330 32.5 1909 38.2 36.3 1432 S | 188 11.5 29.4 99 38 39.9 31.3 0.0 0.0 - 20.0 1821 12.2
5/12/24 45.0 1106 34.3 0259 39.5 38.0 1522 S | 180 12.2 23.5 96 28 40.6 28.4 0.0 0.0 - 21.4 0218 12.2
5/11/24 40.9 1807 27.0 0531 33.8 45.4 0914 NNW | 342 25.7 18.9 71 36 33.1 24.3 9.2 9.3 - 8.9 0250 12.2
5/10/24 34.6 1640 25.0 0551 29.5 47.2 2236 NNW | 338 23.7 18.9 87 39 28.8 23.7 22.3 17.5 - 8.4 0114 12.2
5/9/24 32.4 1714 14.9 0606 24.1 49.5 1815 NNW | 340 30.6 16.4 98 50 27.8 14.6 - 23.4 - -8.7 0649 12.2
5/8/24 31.7 0124 16.7 0048 25.1 54.6 2127 SW | 230 24.7 4.2 85 12 24.4 15.5 - - - -6.5 2333 12.2
5/7/24 39.8 1705 16.7 0142 27.1 47.4 0122 SSW | 204 21.0 11.1 88 23 34.7 14.7 19.0 18.5 - -6.8 0226 12.2
5/6/24 29.3 1245 15.2 0137 21.9 47.9 0929 ESE | 110 23.9 21.0 100 82 29.1 14.9 20.5 - - -7.9 0324 12.2
5/5/24 19.9 1551 5.6 0604 13.5 72.2 0101 SSE | 166 27.1 12.1 97 90 19.6 5.5 - - - -23.5 0600 12.2
5/4/24 30.5 0111 10.4 0055 22.1 104.1 1201 S | 187 59.2 21.5 100 92 30.4 10.2 21.0 - - -19.3 0051 12.2
5/3/24 39.2 1215 27.1 0413 32.2 49.0 0000 S | 189 22.4 26.0 100 52 34.6 24.0 6.5 11.6 - 12.8 0000 12.2
5/2/24 38.4 1120 27.5 0341 32.1 42.9 2012 SSW | 198 17.1 22.1 100 22 34.0 22.2 8.9 11.9 - 11.3 0008 12.2
5/1/24 36.7 1350 24.7 0105 30.4 29.9 1639 S | 184 13.7 12.4 100 16 33.0 20.0 15.8 15.6 - 11.7 0615 12.2
4/30/24 35.2 1519 24.7 0059 30.6 43.9 0955 S | 182 25.4 14.5 100 24 32.3 20.9 14.0 17.2 - 10.1 0558 12.2
4/29/24 38.5 1607 19.9 0709 30.6 53.1 0418 S | 189 22.6 22.8 100 35 36.0 19.2 12.9 13.5 - -0.8 0708 12.2
4/28/24 34.4 1710 22.6 0506 28.7 32.2 0039 SSW | 197 13.0 26.5 100 66 34.0 21.5 10.2 19.6 - 10.7 0042 12.2
4/27/24 31.8 1534 14.4 0625 23.0 48.8 0108 ENE | 71 12.8 22.1 100 88 31.7 14.1 17.6 - - -7.1 0115 12.2
4/26/24 23.6 1305 16.9 0059 20.5 60.1 0153 S | 188 29.7 19.8 99 95 23.4 16.6 - - - -6.8 0050 12.2
4/25/24 29.2 0951 21.9 0342 25.6 55.0 0051 SSW | 198 26.2 20.8 100 50 28.2 19.9 23.7 - - 0.5 0051 12.2
4/24/24 36.9 0854 23.9 0059 28.8 39.9 1408 S | 188 18.6 19.8 100 16 30.3 21.8 19.5 20.8 - 7.8 0038 12.2
4/23/24 40.2 1024 29.4 2146 33.1 44.0 1646 S | 186 18.0 28.4 100 49 36.4 28.0 0.1 9.1 - 14.8 1910 12.2
4/22/24 41.2 1320 32.0 2342 36.6 50.8 1710 S | 184 21.9 28.0 100 51 35.6 30.6 0.0 0.0 - 18.6 2234 12.2
4/21/24 42.4 1425 35.3 0622 38.4 40.3 1502 S | 183 20.7 24.3 72 43 36.0 30.4 0.0 0.0 - 23.2 0645 12.2
4/20/24 41.3 1043 30.4 0526 36.8 27.7 1510 S | 187 11.9 24.8 91 40 37.6 27.3 1.2 2.5 - 17.6 0516 12.2
4/19/24 38.6 1133 26.7 0329 33.4 33.5 1608 S | 183 15.1 22.4 100 40 36.1 24.2 7.9 7.4 - 10.4 0329 12.2
4/18/24 35.3 1431 27.5 0615 31.2 55.3 1350 SSW | 193 33.8 21.7 100 33 32.5 23.7 12.1 15.2 - 9.5 0621 12.2
4/17/24 38.0 1544 28.4 0057 34.0 45.2 1441 S | 180 25.5 20.5 100 37 34.9 25.7 10.2 4.1 - 11.3 0056 12.2
4/16/24 41.1 1130 24.4 0200 32.9 36.6 1509 SSW | 206 12.3 16.0 94 14 32.8 21.7 9.0 6.4 - 13.3 0217 12.2
4/15/24 26.6 2310 14.2 0346 20.4 63.4 0656 E | 87 22.3 18.2 98 74 25.0 13.8 - - - -11.3 0656 12.2
4/14/24 19.7 1539 8.3 0529 14.7 43.8 0301 S | 191 23.8 13.2 96 90 19.4 8.1 - - - -17.7 0301 12.2
4/13/24 26.6 1457 10.3 2347 19.7 61.8 1920 S | 186 36.8 14.4 100 54 24.8 10.0 - - - -15.7 2222 12.2
4/12/24 32.0 0927 22.1 2245 28.4 60.6 1539 S | 191 36.5 23.3 100 57 30.0 22.0 15.4 - - 0.9 2236 12.2
4/11/24 40.6 1129 30.4 2217 35.6 40.0 1548 S | 174 14.0 19.3 78 33 33.2 26.4 2.5 3.9 - 15.6 2215 12.2
4/10/24 41.9 1308 31.8 0126 35.8 26.8 1543 SSW | 199 10.3 13.1 65 16 34.2 24.3 9.7 0.1 - 22.5 0032 12.2
4/9/24 35.4 1750 17.1 0102 29.3 45.3 0106 NNW | 346 23.1 4.5 58 8 29.0 13.9 20.0 15.7 - -5.6 0102 12.2
4/8/24 17.5 0059 8.7 0257 12.3 57.4 1848 NNW | 346 41.5 9.9 95 47 16.1 8.6 - - - -19.6 0643 12.2
4/7/24 19.5 1738 6.9 0643 12.5 59.2 2247 NNW | 347 24.9 10.9 96 90 19.2 6.8 - - - -17.3 0025 12.2
4/6/24 13.0 1742 2.1 0120 8.7 54.7 1343 S | 190 21.5 6.6 94 88 12.7 2.3 - - - -21.5 0310 12.2
4/5/24 8.6 1432 1.7 0302 4.7 61.7 1410 SSW | 193 29.8 2.2 91 88 8.4 1.8 - - - -27.6 0134 12.2
4/4/24 23.0 0319 1.9 0056 13.6 95.7 0547 SW | 216 47.5 12.0 99 88 22.8 2.1 - - - -28.9 2011 12.2
4/3/24 31.5 1042 22.8 0015 27.6 65.1 1908 S | 186 32.4 20.9 100 44 28.9 22.5 22.7 - - -0.8 0037 12.2
4/2/24 36.5 1740 19.6 0105 28.4 69.1 0343 NNW | 334 26.5 16.5 92 32 30.0 19.0 17.4 15.3 - -4.8 0101 12.2
4/1/24 19.8 0101 9.9 0503 14.8 78.1 1909 NW | 321 48.2 13.4 97 90 19.2 9.7 - - - -20.1 0416 12.2
3/31/24 20.4 1747 10.3 0506 14.3 71.8 2344 NNW | 347 33.3 12.9 97 92 20.2 10.1 - - - -17.9 2047 12.2
3/30/24 21.0 1241 10.0 0708 14.5 81.2 0644 SSW | 201 24.3 13.1 97 92 20.7 9.8 - - - -21.3 0644 12.2
3/29/24 16.8 1622 11.8 0504 14.6 55.9 0813 SSW | 195 31.0 13.2 95 92 16.5 11.6 - - - -14.3 0813 12.2
3/28/24 19.0 1426 15.4 0059 17.4 88.4 0413 SSW | 206 44.5 16.4 96 94 18.6 15.0 - - - -11.5 0645 12.2
3/27/24 21.4 1521 12.6 0607 18.0 68.2 1422 S | 184 39.1 17.0 97 92 21.1 12.3 - - - -10.4 0542 12.2
3/26/24 22.6 1656 11.3 0722 16.5 39.8 0242 S | 184 18.1 15.2 98 92 22.3 11.1 - - - -10.2 0959 12.2
3/25/24 20.1 1607 7.3 0539 13.3 39.2 1814 SE | 138 19.0 11.6 96 90 19.7 7.2 - - - -15.1 0612 12.2
3/24/24 18.4 1550 8.4 0528 11.3 57.0 1721 NNW | 347 34.3 9.4 96 90 18.0 8.2 - - - -19.9 0352 12.2
3/23/24 18.7 0107 9.5 0058 13.8 87.6 0457 SSW | 196 40.6 12.1 95 90 18.3 9.2 - - - -18.0 0002 12.2
3/22/24 114.3 0842 -40.0 1322 22.2 69.9 1954 SSW | 200 47.8 19.5 100 3 98.3 -43.8 13.7 13.7 0842 -90.5 1352 12.2
3/21/24 - 0305 -33.8 1044 125.3 48.8 0124 SSW | 194 27.0 - 100 5 - -36.3 1.9 1.9 0305 -72.5 1044 12.2
3/20/24 - 0254 -10.5 2123 109.0 53.3 0036 S | 191 21.2 - 100 35 - -11.6 1.1 1.1 0254 -43.2 2123 12.2
3/19/24 - 0708 51.6 0039 - 35.9 0124 NNW | 333 13.7 - 88 42 - 41.9 0.0 0.0 0710 - - 12.2
3/18/24 - 0846 80.0 0516 - 46.0 2114 N | 349 30.0 - 90 51 - 66.9 0.0 0.0 0849 - - 12.2
3/17/24 - 0058 -10.3 0739 - 59.7 0110 NNW | 345 40.5 - 91 39 - -11.2 0.8 0.8 0443 -41.4 0739 12.2
3/16/24 - 0307 61.8 0805 - 66.6 0031 NNW | 334 38.6 - 90 44 - 50.5 0.0 0.0 0308 - - 12.2
3/15/24 - 1751 -34.2 1230 - 86.8 0830 ENE | 75 55.0 - 91 39 - -30.4 0.6 0.6 1045 -83.3 1230 12.2
3/14/24 - 0951 - 0518 - 144.2 0604 NNW | 341 71.7 - 100 3 - - 1.2 1.0 0951 - 0538 12.2
3/13/24 - 0027 - 1343 - 100.0 0014 N | 349 39.7 - 88 28 - - 0.4 0.3 2300 - 1341 12.2
3/12/24 - 1951 -28.8 1133 98.6 69.2 1550 S | 189 39.7 79.6 83 35 - -28.9 0.5 0.4 1951 -68.4 1133 12.2
3/11/24 - 0423 - 0954 - 64.2 0425 S | 188 38.6 - 100 3 - - 2.0 1.9 0423 - 0804 12.2
3/10/24 - 2352 -58.1 2042 104.8 68.0 1259 S | 187 47.9 86.1 64 30 - - 1.3 1.2 2352 - 2054 12.2
3/9/24 121.9 0645 108.9 1545 116.0 58.3 1722 SSW | 192 41.6 - 60 56 105.5 93.4 0.0 0.0 0418 - - 12.2
3/8/24 - 0943 111.9 0026 - 55.2 0443 N | 349 28.8 - 91 58 - 97.7 0.0 0.0 0943 - - 12.2
3/7/24 - 0152 56.3 1012 - 56.0 2003 NNW | 347 19.8 - 89 43 - 46.0 0.0 0.0 0058 - - 12.2
3/6/24 - 2327 -49.2 0906 - 43.9 0011 S | 181 18.1 - 88 3 - - 0.0 0.0 2327 -77.6 0906 12.2
3/5/24 - 2035 7.2 0917 - 56.2 1101 S | 176 38.1 - 100 3 - 4.0 20.6 20.6 2035 -21.0 0917 12.2
3/4/24 15.2 2025 5.5 0754 10.6 78.0 0003 S | 189 41.1 8.8 94 89 14.9 5.5 - - - -24.8 0002 12.2
3/3/24 9.7 0001 5.8 0419 7.9 99.4 1948 S | 186 47.6 5.8 92 90 9.5 5.7 - - - -28.2 0458 12.2
3/2/24 15.6 0108 5.4 1810 9.2 0.5 0351 S | 182 0.4 7.2 95 90 15.3 5.4 - - - 5.4 1810 12.2
3/1/24 18.8 1404 14.3 1922 16.1 113.8 1650 SSW | 198 51.9 15.0 97 94 18.5 14.0 - - - -17.0 1657 12.2
2/29/24 20.8 1258 15.8 0549 17.8 96.4 1717 S | 181 55.4 16.8 98 95 20.5 15.5 - - - -12.1 2240 12.2
2/28/24 21.8 1148 15.9 0353 19.3 49.1 1728 SSW | 203 32.0 16.3 99 78 21.5 14.8 - - - -5.4 2358 12.2
2/27/24 19.6 2104 12.4 0714 16.6 80.3 0035 S | 187 26.4 15.0 96 80 19.0 12.1 - - - -14.0 0535 12.2
2/26/24 20.6 1643 17.0 0651 18.8 90.2 1326 S | 191 57.5 17.9 98 96 20.4 16.7 - - - -11.1 2344 12.2
2/25/24 24.6 1403 17.9 0525 20.9 51.5 2346 S | 184 31.4 13.0 100 50 22.0 15.0 - - - -5.1 2358 12.2
2/24/24 26.0 1115 19.2 2323 21.7 32.4 2207 SSW | 199 15.2 18.9 97 79 25.2 18.1 - - - 0.2 2146 12.2
2/23/24 27.2 1343 13.7 0058 19.6 29.2 0849 NW | 322 12.5 18.6 100 93 27.0 13.4 - - - -2.4 0843 12.2
2/22/24 19.6 1549 7.1 0512 13.2 26.4 0803 SSW | 197 11.1 11.4 96 90 19.2 6.9 - - - -13.0 0516 12.2
2/21/24 18.7 1454 9.6 2110 13.8 54.8 1252 S | 191 28.1 12.2 97 90 18.4 9.3 - - - -14.4 0709 12.2
2/20/24 21.8 1330 13.1 0149 16.9 71.1 2152 SSW | 198 30.6 15.8 98 93 21.6 12.8 - - - -11.1 0122 12.2
2/19/24 22.8 0100 13.6 2337 18.7 111.8 0526 SSW | 194 48.9 17.7 98 93 22.5 13.2 - - - -11.8 2058 12.2
2/18/24 21.0 1531 14.3 0907 18.5 72.0 0226 S | 189 43.0 17.4 98 93 20.7 13.9 - - - -10.9 0901 12.2
2/17/24 21.8 0001 17.2 1907 19.6 74.1 2238 SSW | 204 39.9 18.2 98 86 21.4 16.9 - - - -8.7 1355 12.2
2/16/24 24.9 1307 15.1 0054 21.0 37.7 1411 S | 183 18.9 18.3 98 82 23.9 14.6 - - - -5.1 0045 12.2
2/15/24 17.4 1511 12.6 0711 15.3 80.7 0705 SSW | 199 32.5 13.8 95 92 17.0 12.3 - - - -17.7 0705 12.2
2/14/24 17.8 1926 12.5 0022 15.5 77.9 1325 SSW | 195 46.9 12.0 95 64 17.5 11.8 - - - -13.5 1210 12.2
2/13/24 20.3 1233 11.2 2307 16.5 57.4 1530 SSW | 195 32.2 7.3 98 40 16.6 10.9 - - - -12.8 2240 12.2
2/12/24 27.3 1051 17.7 1938 21.8 36.0 1438 SSW | 197 22.7 -1.5 71 7 21.2 14.7 - - - -1.5 2140 12.2
2/11/24 27.5 0353 20.0 2235 24.6 36.4 2222 N | 350 19.6 6.5 63 12 22.3 16.0 - - - 0.3 2153 12.2
2/10/24 23.4 2156 -0.1 0645 8.9 99.4 0005 N | 350 51.0 -5.2 94 5 16.2 0.2 - - - -36.2 0644 12.2
2/9/24 15.4 1558 4.2 2359 9.8 97.6 2321 NNW | 341 24.8 7.8 94 89 15.0 4.3 - - - -31.8 2337 12.2
2/8/24 16.2 1344 6.6 0253 10.4 62.3 0326 ESE | 120 21.9 8.5 95 90 15.8 6.5 - - - -23.0 0326 12.2
2/7/24 17.0 1226 7.7 2359 12.4 76.1 1024 S | 185 35.2 10.7 96 90 16.7 7.5 - - - -18.1 2304 12.2
2/6/24 21.4 1150 12.6 2153 16.3 29.1 0808 S | 182 13.0 15.1 98 93 21.1 12.3 - - - -7.8 2349 12.2
2/5/24 17.8 1254 12.1 0707 15.2 109.0 0025 SSW | 207 33.6 13.8 96 92 17.5 11.8 - - - -17.5 0447 12.2
2/4/24 22.4 1157 16.4 2357 19.2 124.9 2210 SSW | 196 40.1 18.2 97 94 22.1 16.0 - - - -14.7 2308 12.2
2/3/24 17.0 1420 6.6 0646 11.4 60.9 0125 S | 185 27.9 9.5 95 89 16.6 6.5 - - - -21.5 0125 12.2
2/2/24 16.0 1252 8.6 2354 11.8 63.6 1237 SSW | 194 40.6 10.0 95 90 15.6 8.4 - - - -20.7 2253 12.2
2/1/24 21.4 0306 11.8 2358 17.0 81.0 0553 SW | 219 35.3 15.6 97 92 21.0 11.5 - - - -11.4 2357 12.2
1/31/24 26.9 0036 19.2 2359 23.0 85.9 1759 S | 179 45.9 15.7 97 49 23.1 18.8 - - - -6.6 1936 12.2
1/30/24 33.9 1042 25.5 2121 29.9 49.4 2127 SSW | 194 24.8 14.1 84 31 27.5 21.8 - 17.3 - 5.2 2127 12.2
1/29/24 37.8 1122 28.6 0015 33.2 37.0 0042 NNW | 331 10.7 17.6 76 35 30.7 25.7 12.1 7.4 - 11.9 0050 12.2
1/28/24 36.4 0016 28.9 0742 32.5 37.6 2305 NNW | 336 15.4 21.9 78 50 30.9 26.5 7.9 10.2 - 12.6 2305 12.2
1/27/24 39.0 1232 30.7 0025 34.8 24.4 0132 N | 350 7.6 21.5 79 43 32.8 28.4 0.0 2.9 - 17.8 0016 12.2
1/26/24 31.1 1339 13.3 0001 25.6 33.0 2159 E | 84 12.7 24.4 100 78 31.0 13.0 14.3 - - -6.2 0104 12.2
1/25/24 21.5 0005 11.1 0827 15.2 65.5 0249 SSE | 168 20.4 13.8 98 92 21.2 10.8 - - - -12.4 0736 12.2
1/24/24 26.5 1430 14.6 0001 21.6 60.6 2310 S | 191 33.8 21.0 100 94 26.3 14.3 - - - -9.2 0428 12.2
1/23/24 21.5 1433 13.8 2055 17.0 29.4 0804 ENE | 78 10.9 15.8 97 93 21.2 13.5 - - - -4.9 0804 12.2
1/22/24 30.6 1214 18.9 0057 22.6 66.8 0048 S | 182 24.3 22.0 100 96 30.5 18.5 20.6 - - -6.7 0048 12.2
1/21/24 25.0 1229 15.3 0116 20.4 69.9 2152 S | 184 32.8 19.6 99 94 24.8 15.0 - - - -8.6 0056 12.2
1/20/24 21.8 1244 15.6 2356 19.3 76.6 1041 SSW | 194 46.7 18.3 97 94 21.5 15.2 - - - -9.8 2112 12.2
1/19/24 30.0 0721 17.6 2104 24.8 54.1 2212 S | 188 30.9 14.6 98 43 25.5 17.2 - - - -6.6 2102 12.2
1/18/24 38.1 1314 25.2 0047 31.6 30.2 2343 SSW | 195 9.0 16.3 68 32 32.0 19.9 16.6 16.6 - 12.0 2358 12.2
1/17/24 27.2 2358 15.6 0847 19.5 93.5 0506 S | 188 41.4 17.5 98 43 24.0 15.2 - - - -10.1 0846 12.2
1/16/24 25.1 0915 20.9 2128 22.4 74.0 2055 S | 182 39.5 16.3 99 53 22.8 18.7 - - - -4.4 2055 12.2
1/15/24 26.9 1438 18.0 0348 22.0 46.3 0659 SSE | 147 16.0 20.0 99 72 26.7 17.7 - - - -3.7 0659 12.2
1/14/24 21.7 1351 17.4 0104 19.2 77.2 0031 S | 174 31.0 18.2 97 95 21.4 17.1 - - - -10.3 0031 12.2
1/13/24 23.8 0336 16.6 1935 19.8 103.5 2146 SSW | 196 38.1 18.8 100 86 23.3 16.3 - - - -12.7 1942 12.2
1/12/24 21.7 0530 13.9 1938 17.4 58.4 1427 S | 186 27.5 5.8 97 35 20.8 12.8 - - - -10.8 1839 12.2
1/11/24 20.2 2344 -3.2 0735 7.0 75.8 0001 S | 184 31.7 -1.2 92 36 16.0 -2.7 - - - -37.3 0714 12.2
1/10/24 12.4 1608 5.9 0607 9.9 100.4 1621 SSW | 199 45.2 7.8 92 88 12.1 5.8 - - - -24.0 2352 12.2
1/9/24 23.1 0005 8.8 2359 17.5 64.1 1410 S | 189 34.2 10.9 98 45 19.8 8.6 - - - -19.1 2347 12.2
1/8/24 24.8 2203 -2.3 0005 14.8 81.5 0656 E | 84 44.9 5.1 97 10 21.0 -1.9 - - - -32.8 0012 12.2
1/7/24 1.3 1500 -3.6 0516 -1.3 52.8 0249 E | 81 30.9 -4.6 87 85 1.5 -3.1 - - - -35.4 0249 12.2
1/6/24 19.1 0111 -0.1 2359 9.5 113.8 1340 S | 179 36.8 0.0 90 27 14.2 0.1 - - - -30.9 2354 12.2
1/5/24 19.8 0329 9.4 0944 14.1 77.0 0915 NNW | 348 36.2 2.5 96 24 15.8 9.2 - - - -21.1 0943 12.2
1/4/24 22.3 2236 7.6 0255 12.8 55.2 1545 ENE | 70 31.3 4.9 92 27 16.9 7.5 - - - -20.7 0004 12.2
1/3/24 13.4 0034 7.1 0706 9.6 68.9 2217 E | 100 31.7 7.3 93 89 13.1 6.9 - - - -22.4 0807 12.2
1/2/24 18.6 1152 13.3 2357 16.2 57.5 2044 SW | 216 36.8 11.9 96 69 16.7 13.0 - - - -12.2 2316 12.2
1/1/24 21.0 1729 13.8 0602 17.3 19.9 0130 SW | 215 5.6 10.5 91 60 19.3 12.5 - - - -1.6 0342 12.2
12/31/23 23.2 0954 10.7 0100 17.9 30.5 1236 SSW | 205 9.8 -4.5 98 4 18.0 10.4 - - - -4.2 1531 12.2
12/30/23 21.1 1257 11.2 2344 17.3 53.5 0508 S | 190 17.8 16.1 98 90 20.8 10.9 - - - -7.5 0508 12.2
12/29/23 29.6 0030 17.5 2359 26.0 59.3 2101 SSW | 208 35.3 11.2 92 28 25.1 16.8 - - - -5.9 2359 12.2
12/28/23 31.1 1407 22.6 0234 27.2 45.3 0127 S | 180 22.2 19.3 100 45 27.4 22.2 - - - 2.3 0237 12.2
12/27/23 26.9 0238 18.8 2218 23.0 66.4 1544 S | 188 41.6 1.5 98 28 23.2 15.2 - - - -2.9 1720 12.2
12/26/23 29.9 0050 23.7 1630 26.8 53.8 1340 S | 188 23.9 8.6 89 24 26.2 19.2 - - - 4.0 1603 12.2
12/25/23 31.2 1227 23.9 0811 27.2 28.0 0741 NNW | 340 11.6 17.9 96 41 27.8 20.7 - - - 7.8 0741 12.2
12/24/23 30.1 1438 16.0 0334 23.6 38.0 1133 E | 94 14.5 8.8 95 27 24.4 15.2 - - - -1.1 0338 12.2
12/23/23 20.3 1344 14.6 0144 17.0 30.1 0558 ESE | 102 11.2 15.9 97 91 20.0 14.3 - - - -6.0 0048 12.2
12/22/23 22.5 1435 17.0 0520 20.2 31.0 2214 ENE | 77 11.7 19.5 98 95 22.2 16.6 - - - -1.0 2359 12.2
12/21/23 25.4 1215 20.8 2351 22.6 32.6 0957 NNW | 330 13.8 22.3 100 97 25.3 20.5 - - - 3.7 0957 12.2
12/20/23 27.9 1249 20.1 0813 22.7 51.7 0004 SSW | 210 13.6 22.3 100 96 27.8 19.7 - - - -1.0 0009 12.2
12/19/23 25.6 1024 21.2 1935 23.7 78.7 1234 S | 170 43.4 23.4 100 97 25.5 20.9 - - - -1.6 2356 12.2
12/18/23 32.7 0001 22.8 0201 26.9 76.1 1558 SSW | 193 47.8 25.2 100 29 28.6 22.4 23.0 23.9 - 1.6 0200 12.2
12/17/23 40.2 1038 32.3 1642 36.2 39.0 2018 SSW | 197 18.6 6.6 42 14 31.7 24.3 12.1 0.0 - 19.6 2356 12.2
12/16/23 39.2 1454 29.0 0420 33.4 35.6 0305 SSW | 193 21.0 -5.5 26 11 29.0 21.0 23.3 8.0 - 13.0 0352 12.2
12/15/23 40.6 1042 28.7 0159 35.6 25.7 0126 SSW | 201 9.2 -1.5 28 6 30.8 21.1 15.5 5.2 - 14.4 0159 12.2
12/14/23 31.2 2157 23.0 0239 27.3 22.8 1301 SSW | 206 10.7 -8.5 36 7 23.4 17.2 - - - 8.5 0451 12.2
12/13/23 26.2 2341 12.6 0353 18.9 48.4 0023 NNW | 345 24.1 5.9 92 22 19.6 12.1 - - - -12.1 0007 12.2
12/12/23 26.4 0444 13.0 2327 19.8 47.9 2333 N | 350 21.4 9.3 99 31 21.2 12.6 - - - -12.2 2333 12.2
12/11/23 30.6 0029 22.0 2220 26.8 51.2 1340 S | 190 26.4 2.7 69 13 23.8 17.9 - - - 6.7 1811 12.2
12/10/23 39.2 1008 29.8 2337 34.7 34.1 1708 SSW | 192 17.8 6.6 64 10 31.5 22.2 15.4 4.9 - 14.6 2319 12.2
12/9/23 37.4 1453 26.9 0404 32.2 43.5 1945 NNW | 346 13.8 8.5 63 22 30.3 20.3 16.8 9.4 - 14.9 2035 12.2
12/8/23 29.1 2355 8.6 0303 17.4 35.0 0502 SSW | 196 11.8 7.2 94 20 21.8 8.4 - - - -13.3 0502 12.2
12/7/23 19.1 1118 9.8 2359 15.9 92.0 0127 S | 188 48.7 14.4 96 90 18.8 9.5 - - - -14.7 0802 12.2
12/6/23 30.7 0005 17.9 2241 24.3 100.7 2310 S | 169 48.6 17.6 97 52 26.0 17.5 - - - -11.1 2238 12.2
12/5/23 36.2 1230 30.3 2358 33.5 35.5 1319 SSW | 193 16.5 15.7 54 41 29.9 25.6 11.1 6.3 - 15.4 2356 12.2
12/4/23 32.1 0956 26.2 0659 28.9 32.0 1927 NW | 324 14.2 13.3 67 35 26.5 21.5 - 23.9 - 10.9 2003 12.2
12/3/23 30.1 1032 17.6 0133 26.5 52.9 0019 SSW | 199 17.7 11.1 89 28 25.9 16.5 - - - -6.0 0019 12.2
12/2/23 22.0 1514 15.0 0504 18.1 54.2 2129 S | 187 28.2 11.7 99 46 20.4 13.4 - - - -7.4 2129 12.2
12/1/23 20.2 1328 12.4 0529 16.0 55.3 0029 SSW | 203 24.2 12.9 97 66 19.8 12.0 - - - -13.7 0358 12.2
11/30/23 17.5 1339 13.0 2356 15.0 50.2 2340 SSW | 196 25.9 13.5 95 92 17.1 12.6 - - - -12.9 2355 12.2
11/29/23 24.0 1400 13.9 0531 18.2 43.0 0443 S | 189 14.6 8.8 100 30 20.6 13.3 - - - -9.8 0526 12.2
11/28/23 26.6 0037 17.0 2239 21.6 44.0 1604 S | 191 24.4 -4.5 69 12 19.5 13.8 - - - -3.7 1647 12.2
11/27/23 26.8 2247 15.9 0136 22.0 45.0 0013 NW | 316 16.2 -16.2 38 10 19.1 12.0 - - - -5.5 0136 12.2
11/26/23 23.7 1356 15.4 2312 20.8 40.5 2358 NW | 322 24.0 -13.4 47 8 18.4 12.1 - - - -5.4 2313 12.2
11/25/23 20.1 2014 14.4 0001 17.1 30.2 1928 NW | 325 15.2 -8.5 61 13 14.9 10.7 - - - -3.2 1908 12.2
11/24/23 19.4 1402 8.2 0505 13.8 35.9 0800 ENE | 75 15.8 2.3 94 22 17.0 7.8 - - - -12.2 0756 12.2
11/23/23 32.9 0016 14.6 2333 24.2 46.9 1101 S | 186 20.3 18.2 100 39 27.3 14.2 - 23.0 - -6.3 2236 12.2
11/22/23 43.5 0336 32.4 2359 38.4 24.6 1203 SSW | 198 8.2 6.3 45 15 32.1 26.5 4.6 0.0 - 20.6 2359 12.2
11/21/23 44.1 2316 33.9 0001 39.8 28.3 0025 NNW | 346 9.2 -1.6 28 8 32.0 23.8 7.4 0.0 - 20.8 0001 12.2
11/20/23 33.9 2357 22.4 0054 29.3 93.7 0209 NNW | 340 53.5 -13.9 32 8 24.1 16.8 - 15.9 - -2.4 0054 12.2
11/19/23 29.2 1241 11.4 0625 22.8 112.2 0028 S | 179 46.0 0.2 98 15 22.1 11.2 - - - -18.9 0518 12.2
11/18/23 26.2 1303 21.3 0332 23.3 106.3 2354 SSE | 164 44.4 23.0 100 98 26.0 21.1 - - - -6.0 2354 12.2
11/17/23 24.9 1458 18.0 0306 21.8 47.0 2344 SW | 214 19.3 21.3 100 95 24.8 17.7 - - - 1.2 2344 12.2
11/16/23 30.7 1343 18.8 2304 25.3 63.2 0041 SSW | 194 21.4 25.1 100 95 30.6 18.4 19.8 - - 2.0 0636 12.2
11/15/23 32.6 1040 23.9 0416 27.5 68.2 2313 SSW | 201 31.5 19.6 100 32 30.8 19.5 18.1 23.8 - 4.4 2313 12.2
11/14/23 30.0 1307 20.9 0010 25.5 51.4 1321 SSW | 198 31.7 6.9 55 37 24.8 17.5 - - - -0.3 0001 12.2
11/13/23 28.2 1344 21.0 2347 24.5 62.3 0101 SSW | 194 41.0 7.8 64 38 23.8 17.7 - - - -0.3 2349 12.2
11/12/23 34.9 0005 23.1 2257 29.0 55.8 2327 S | 190 32.0 7.2 51 17 26.2 18.7 - 20.9 - 1.2 2254 12.2
11/11/23 36.7 1133 26.3 0458 31.6 26.8 0441 SSW | 196 14.2 9.5 59 25 29.3 22.2 23.1 9.5 - 10.9 0441 12.2
11/10/23 32.8 1429 23.6 0525 28.1 19.6 2355 SSW | 196 8.2 -0.9 48 12 26.5 17.1 - 22.1 - 9.7 0520 12.2
11/9/23 28.6 1410 15.8 0040 23.7 36.4 0211 NW | 324 16.6 -10.9 43 7 21.2 12.3 - - - -5.8 0047 12.2
11/8/23 17.2 1627 12.0 0704 14.8 66.3 0523 NNW | 342 46.7 9.4 95 41 16.1 11.7 - - - -15.6 0704 12.2
11/7/23 24.1 0008 15.0 2310 19.4 57.0 2355 NNW | 348 32.2 18.5 99 94 23.8 14.6 - - - -11.0 2355 12.2
11/6/23 29.0 0056 22.8 1313 25.8 68.8 1813 S | 188 42.0 25.1 100 78 28.5 22.4 23.6 - - 0.7 1316 12.2
11/5/23 37.2 1212 27.8 2359 31.6 70.5 1352 S | 183 49.6 20.6 94 38 32.8 24.6 14.6 15.8 - 7.0 2355 12.2
11/4/23 42.1 1325 31.3 2215 36.2 53.0 0057 S | 191 37.1 24.5 81 46 35.2 28.4 0.0 2.6 - 13.6 0057 12.2
11/3/23 43.9 1417 35.6 0054 39.1 33.6 1404 S | 190 14.7 17.8 68 17 36.6 26.4 2.4 0.0 - 22.6 0035 12.2
11/2/23 42.8 1329 36.5 0210 38.8 37.7 1203 S | 178 18.0 5.1 43 18 31.7 27.4 6.0 0.0 - 24.8 0210 12.2
11/1/23 44.5 1443 33.6 0226 38.4 19.8 0018 SSW | 193 14.1 0.2 23 5 32.0 24.4 11.4 0.0 - 26.1 0438 12.2
10/31/23 42.8 1350 33.3 0620 37.4 18.6 2025 NNW | 341 6.5 -3.8 22 10 31.5 24.2 15.5 0.0 - 24.5 0541 12.2
10/30/23 38.0 1512 29.1 0118 33.0 38.4 2131 NNW | 333 27.2 -13.1 21 3 28.0 20.0 - 9.3 - 13.1 0130 12.2
10/29/23 30.6 2354 13.8 0621 21.8 68.9 0629 NNW | 338 45.4 -11.2 40 4 21.2 9.3 - - - -14.4 0629 12.2
10/28/23 27.5 1158 10.7 2014 19.1 53.6 0028 E | 90 31.4 -1.0 93 15 21.2 9.8 - - - -15.7 2026 12.2
10/27/23 32.0 1630 18.3 0411 25.1 41.5 0351 S | 188 24.0 11.1 100 17 28.1 15.1 24.0 - - -3.5 0357 12.2
10/26/23 27.8 1754 21.5 0035 24.4 79.8 0602 S | 186 29.2 24.0 100 87 27.7 20.5 23.5 23.5 - -1.8 0729 12.2
10/25/23 33.6 1208 23.4 0042 28.6 79.0 1820 S | 178 48.1 22.3 100 44 29.5 23.1 17.8 19.3 - -1.1 0030 12.2
10/24/23 40.0 1428 27.7 0104 35.0 48.2 2345 SSW | 194 21.2 11.1 96 4 34.3 23.8 12.7 6.5 - 9.4 2336 12.2
10/23/23 30.7 1717 25.1 0405 27.9 58.0 1107 N | 349 31.4 27.6 100 86 30.6 24.9 12.7 - - 6.0 0513 12.2
10/22/23 33.2 1440 25.8 0030 30.2 60.9 1637 SSE | 160 32.8 30.0 100 87 32.9 25.7 5.6 19.3 - 8.4 1751 12.2
10/21/23 45.6 1309 32.8 0059 38.7 45.3 0056 S | 187 27.3 29.0 88 43 38.6 31.4 0.0 0.0 - 16.1 0056 12.2
10/20/23 47.4 1329 37.3 0057 42.2 44.0 1429 S | 173 24.6 26.5 82 42 39.6 33.4 0.0 0.0 - 24.7 0056 12.2
10/19/23 53.6 1612 40.6 0055 46.6 25.5 0006 S | 187 10.0 21.0 55 20 41.3 33.8 0.0 0.0 - 30.1 0054 12.2
10/18/23 51.0 1547 40.4 0230 46.3 37.4 2143 NNW | 336 14.9 17.9 47 17 40.0 30.9 0.0 0.0 - 30.4 0154 12.2
10/17/23 48.6 1513 38.3 0253 43.1 38.2 0114 SSW | 194 21.8 14.4 46 19 36.9 29.6 0.0 0.0 - 25.9 0123 12.2
10/16/23 48.4 1404 39.0 0048 43.1 38.5 1341 S | 191 27.6 21.3 56 15 39.8 30.0 0.0 0.0 - 26.7 0057 12.2
10/15/23 51.3 1306 37.2 0315 44.5 30.7 1516 S | 179 16.5 21.6 68 18 40.6 30.1 0.0 0.0 - 25.1 0314 12.2
10/14/23 43.0 1504 28.2 0543 35.6 52.3 1050 S | 190 30.6 14.8 75 15 34.2 23.1 10.3 7.9 - 10.0 0557 12.2
10/13/23 40.1 1247 27.6 0725 33.3 41.3 1500 S | 189 23.8 17.0 92 12 31.4 25.3 12.4 12.0 - 10.7 0003 12.2
10/12/23 36.0 1524 20.8 0109 30.1 33.9 0101 NNW | 342 12.4 7.1 89 9 30.3 18.6 17.7 16.2 - 2.7 0108 12.2
10/11/23 31.6 1716 19.2 2357 25.4 80.9 0554 S | 186 35.8 24.4 100 54 31.6 19.0 19.4 - - -1.7 2158 12.2
10/10/23 39.1 1447 27.8 0046 32.6 72.1 2337 S | 177 45.4 22.6 100 34 33.9 25.7 9.1 13.8 - 6.7 2330 12.2
10/9/23 43.4 1350 30.0 2345 37.8 61.2 2026 S | 187 36.0 28.4 100 45 37.6 28.3 0.0 2.8 - 11.3 2354 12.2
10/8/23 50.4 1451 39.6 0059 44.5 35.4 1554 S | 180 18.1 26.9 67 33 41.0 33.2 0.0 0.0 - 27.9 0059 12.2
10/7/23 50.8 1536 41.1 0653 45.9 33.8 1536 S | 190 7.2 25.4 71 27 41.6 34.0 0.0 0.0 - 34.1 0058 12.2
10/6/23 47.7 1028 39.3 0229 44.7 24.8 1516 NW | 322 11.0 24.2 68 24 41.0 32.7 0.0 0.0 - 30.5 0102 12.2
10/5/23 47.9 0523 35.2 0104 41.9 35.4 1855 NNW | 347 15.2 26.7 86 25 40.0 32.0 0.0 0.0 - 24.0 0104 12.2
10/4/23 41.5 1640 28.9 0249 35.1 40.7 1540 NNW | 343 23.5 30.8 100 23 38.3 28.5 0.0 8.5 - 12.6 0850 12.2
10/3/23 38.9 1548 24.5 0250 32.9 52.9 2040 S | 170 32.4 30.8 100 69 36.9 24.3 4.1 9.9 - 7.7 0249 12.2
10/2/23 31.5 1427 22.5 0209 27.1 47.7 2011 N | 350 18.9 27.0 100 98 31.4 22.3 12.8 - - 5.2 0835 12.2
10/1/23 30.8 1327 21.5 0632 25.1 35.9 1945 ESE | 122 11.4 25.0 100 97 30.7 21.2 21.2 - - 6.8 2126 12.2
9/30/23 31.0 0104 21.8 1017 26.0 71.5 0313 SSW | 207 31.2 25.9 100 97 30.9 21.5 20.5 - - 2.3 0932 12.2
9/29/23 41.3 1250 30.7 0028 36.2 62.8 0028 S | 180 38.4 27.4 100 26 36.9 28.0 0.0 3.7 - 10.9 0028 12.2
9/28/23 49.8 1644 37.3 0431 43.2 44.9 0329 SSW | 199 25.2 20.9 74 19 41.6 29.1 0.0 0.0 - 23.3 0406 12.2
9/27/23 51.1 1353 39.4 0417 43.8 43.7 0506 S | 191 27.5 22.9 82 27 41.5 31.0 0.0 0.0 - 25.9 0455 12.2
9/26/23 48.6 1421 33.6 0427 40.9 52.8 0428 S | 189 33.4 12.8 64 14 38.6 25.5 7.6 0.0 - 16.3 0409 12.2
9/25/23 45.6 1319 32.7 0642 37.9 49.4 0019 S | 187 34.6 12.9 63 20 34.4 26.1 6.2 0.0 - 16.6 0639 12.2
9/24/23 46.4 1402 33.5 0438 38.2 49.5 0444 SSW | 192 32.6 13.0 61 24 35.5 25.8 7.2 0.0 - 16.5 0444 12.2
9/23/23 43.7 1313 32.9 0533 38.0 45.2 1504 S | 187 28.8 10.8 63 12 34.0 24.8 7.0 0.0 - 18.0 0533 12.2
9/22/23 44.5 1419 25.2 0108 39.5 223.2 0835 W | 281 - 9.7 98 15 35.2 21.4 9.5 6.7 - 3.4 0757 12.2
9/21/23 32.8 0101 25.7 0056 30.3 56.4 2157 SE | 132 35.4 30.2 100 98 32.8 25.4 4.0 22.5 - 7.5 2217 12.2
9/20/23 46.1 1320 32.7 0053 40.0 58.0 2354 SE | 126 23.8 32.4 100 50 42.1 32.6 0.0 0.0 - 15.2 2348 12.2
9/19/23 50.5 1346 38.8 2208 43.0 34.5 1611 ESE | 123 13.3 29.1 74 31 42.5 34.7 0.0 0.0 - 27.9 2207 12.2
9/18/23 49.9 1311 39.8 0640 44.4 33.5 1634 SE | 124 14.8 28.9 76 31 41.8 34.2 0.0 0.0 - 30.1 0011 12.2
9/17/23 52.0 1424 40.1 0545 45.3 28.6 1350 SE | 129 8.2 32.9 81 43 44.6 36.8 0.0 0.0 - 32.8 0515 12.2
9/16/23 51.6 1623 39.4 0628 45.7 31.8 1133 SE | 127 11.4 31.8 81 39 43.6 36.5 0.0 0.0 - 32.1 0356 12.2
9/15/23 51.1 1443 38.9 0514 45.0 26.4 1147 ESE | 123 6.8 31.8 90 38 44.1 34.0 0.0 0.0 - 32.7 0103 12.2
9/14/23 51.4 1541 39.4 0637 43.4 35.1 0104 SE | 126 17.9 32.6 81 45 44.9 35.0 0.0 0.0 - 27.5 0641 12.2
9/13/23 51.1 1423 39.9 2257 45.1 43.1 2209 SE | 126 17.0 34.4 87 42 44.0 37.4 0.0 0.0 - 27.1 2201 12.2
9/12/23 49.7 1316 40.4 0642 44.4 37.0 1514 SE | 130 14.2 35.3 86 53 44.2 37.2 0.0 0.0 - 32.2 0227 12.2
9/11/23 49.0 1337 39.9 2309 43.7 43.4 1752 SE | 128 17.5 39.7 100 64 45.7 38.0 0.0 0.0 - 29.9 0554 12.2
9/10/23 48.9 1442 41.1 0727 43.8 35.8 0133 ESE | 119 16.5 42.4 100 67 47.5 41.1 0.0 0.0 - 30.2 0712 12.2
9/9/23 50.4 1536 38.7 1033 43.5 48.9 0615 ESE | 116 28.6 41.2 100 76 47.6 38.9 0.0 0.0 - 25.6 0615 12.2
9/8/23 52.2 1415 37.5 0246 44.2 65.5 1516 ESE | 116 40.3 21.5 79 23 40.2 29.7 0.0 0.0 - 23.5 0403 12.2
9/7/23 50.5 1325 37.4 0239 42.9 46.3 1621 ESE | 119 26.9 26.6 87 28 42.1 31.7 0.0 0.0 - 24.2 0030 12.2
9/6/23 49.0 1440 36.7 0630 41.9 39.0 0707 ESE | 117 24.0 35.7 100 46 43.5 35.8 0.0 0.0 - 22.8 0637 12.2
9/5/23 49.6 1714 35.6 0514 42.6 30.9 0359 ESE | 118 14.5 32.4 99 39 44.2 32.1 0.0 0.0 - 22.6 0359 12.2
9/4/23 46.7 1801 27.5 0109 40.4 30.0 1537 ESE | 120 10.4 24.9 100 31 40.6 26.5 4.1 1.1